Cusco, Peru
Current Conditions -  °F | °C
As of 3:00 PM on Saturday 25 Oct 2014 (Local Time) from SPZO Reporting Station
Broken Clouds Broken Clouds  
Wind Chill: 61°   Ceiling: 5000
Heat Index: 61°   Visibility: 6mi
Dew Point: 43°   Wind: 3mph
Humidity: 52%   Direction: NA
Pressure: 30.39"   Gusts: NA
Location:  13.52°S, 71.99°W
Report Text: SPZO 252000Z VRB03KT 9999 BKN050 SCT100 16/06 Q1029 NOSIG RMK PP000
Loading
Personal Weather Stations






























Interactive Weather Map New forecast layout! Learn more

10-Day Weather Forecast

Advertisements
Track Severe Weather on mobile